createdAt,value
2022-11-08T00:02:48.183Z,100478.53
2022-11-08T00:07:08.713Z,100483.66
2022-11-08T00:11:28.608Z,100482.75
2022-11-08T00:15:33.303Z,100481.91
2022-11-08T00:19:35.006Z,100473.41
2022-11-08T00:23:36.511Z,100478.47
2022-11-08T00:27:38.227Z,100463.94
2022-11-08T00:31:39.738Z,100464.59
2022-11-08T00:35:41.221Z,100466.97
2022-11-08T00:39:42.735Z,100471.03
2022-11-08T00:43:44.355Z,100459.78
2022-11-08T00:47:45.841Z,100472.66
2022-11-08T00:51:47.374Z,100468.38
2022-11-08T00:55:48.846Z,100454.75
2022-11-08T00:59:50.370Z,100452.97
2022-11-08T01:03:52.043Z,100454.66
2022-11-08T01:07:53.572Z,100455.31
2022-11-08T01:11:55.114Z,100456.16
2022-11-08T01:15:56.903Z,100456.97
2022-11-08T01:19:58.394Z,100447.47
2022-11-08T01:24:00.018Z,100446.53
2022-11-08T01:28:01.498Z,100443.94
2022-11-08T01:32:03.032Z,100424.16
2022-11-08T01:36:11.814Z,100418.94
2022-11-08T01:40:13.710Z,100417.78
2022-11-08T01:44:17.066Z,100410.97
2022-11-08T01:48:18.956Z,100405.75
2022-11-08T01:52:30.108Z,100403.16
2022-11-08T01:56:31.824Z,100399.66
2022-11-08T02:00:35.628Z,100390.13
2022-11-08T02:04:39.156Z,100387.31
2022-11-08T02:08:43.139Z,100389.66
2022-11-08T02:12:44.962Z,100373.22
2022-11-08T02:16:46.529Z,100378.34
2022-11-08T02:21:15.580Z,100380.09
2022-11-08T02:25:17.114Z,100378.25
2022-11-08T02:29:25.803Z,100373.13
2022-11-08T02:33:27.329Z,100362.03
2022-11-08T02:37:29.022Z,100373.13
2022-11-08T02:41:30.517Z,100374.03
2022-11-08T02:45:32.506Z,100357.06
2022-11-08T02:49:34.039Z,100363.78
2022-11-08T02:53:35.585Z,100369.75
2022-11-08T02:57:37.091Z,100360.25
2022-11-08T03:01:38.897Z,100361.03
2022-11-08T03:05:40.535Z,100352.47
2022-11-08T03:09:42.101Z,100348.09
2022-11-08T03:13:43.608Z,100350.56
2022-11-08T03:17:45.142Z,100353.97
2022-11-08T03:21:46.606Z,100343.47
2022-11-08T03:25:48.132Z,100341.53
2022-11-08T03:29:50.022Z,100341.19
2022-11-08T03:33:51.545Z,100347.16
2022-11-08T03:37:55.079Z,100336.06
2022-11-08T03:41:56.874Z,100332.69
2022-11-08T03:45:58.349Z,100326.81
2022-11-08T03:49:59.834Z,100327.63
2022-11-08T03:54:01.392Z,100324.91
2022-11-08T03:58:02.908Z,100315.38
2022-11-08T04:02:04.502Z,100311.63
2022-11-08T04:06:06.475Z,100313.31
2022-11-08T04:10:09.453Z,100310.56
2022-11-08T04:14:29.810Z,100303.72
2022-11-08T04:18:49.719Z,100305.47
2022-11-08T04:22:51.285Z,100323.50
2022-11-08T04:26:52.816Z,100332.19
2022-11-08T04:30:56.218Z,100317.66
2022-11-08T04:34:57.684Z,100315.88
2022-11-08T04:38:59.665Z,100331.97
2022-11-08T04:43:01.154Z,100313.00
2022-11-08T04:47:02.929Z,100321.41
2022-11-08T04:51:16.927Z,100310.94
2022-11-08T04:55:19.332Z,100315.94
2022-11-08T04:59:21.053Z,100313.19
2022-11-08T05:03:22.579Z,100286.66
2022-11-08T05:07:24.177Z,100291.59
2022-11-08T05:11:28.189Z,100285.38
2022-11-08T05:15:29.723Z,100272.34
2022-11-08T05:19:49.846Z,100273.88
2022-11-08T05:23:51.730Z,100276.16
2022-11-08T05:27:53.292Z,100273.69
2022-11-08T05:31:54.846Z,100275.31
2022-11-08T05:35:56.374Z,100280.38
2022-11-08T05:39:57.900Z,100277.13
2022-11-08T05:43:59.414Z,100275.13
2022-11-08T05:48:03.628Z,100271.69
2022-11-08T05:52:05.720Z,100277.75
2022-11-08T05:56:07.867Z,100270.84
2022-11-08T06:00:11.504Z,100264.78
2022-11-08T06:04:13.232Z,100248.56
2022-11-08T06:08:14.863Z,100244.13
2022-11-08T06:12:16.378Z,100232.84
2022-11-08T06:16:19.556Z,100246.25
2022-11-08T06:20:21.209Z,100256.47
2022-11-08T06:24:22.959Z,100270.16
2022-11-08T06:28:24.737Z,100269.34
2022-11-08T06:32:26.425Z,100278.03
2022-11-08T06:36:28.238Z,100279.00
2022-11-08T06:40:32.226Z,100279.25
2022-11-08T06:44:33.858Z,100276.00
2022-11-08T06:48:36.271Z,100277.03
2022-11-08T06:52:38.163Z,100281.41
2022-11-08T06:56:39.721Z,100272.97
2022-11-08T07:00:41.207Z,100275.28
2022-11-08T07:04:42.774Z,100272.31
2022-11-08T07:08:44.307Z,100268.53
2022-11-08T07:12:46.386Z,100269.75
2022-11-08T07:16:48.115Z,100271.53
2022-11-08T07:20:49.703Z,100274.25
2022-11-08T07:24:51.266Z,100275.31
2022-11-08T07:28:52.800Z,100268.56
2022-11-08T07:32:55.807Z,100268.66
2022-11-08T07:36:57.429Z,100258.47
2022-11-08T07:41:00.850Z,100265.56
2022-11-08T07:45:02.531Z,100264.84
2022-11-08T07:49:04.028Z,100261.88
2022-11-08T07:53:05.781Z,100264.63
2022-11-08T07:57:07.283Z,100257.06
2022-11-08T08:01:08.886Z,100257.38
2022-11-08T08:05:10.791Z,100259.63
2022-11-08T08:09:12.371Z,100258.31
2022-11-08T08:13:14.463Z,100246.63
2022-11-08T08:17:16.003Z,100268.22
2022-11-08T08:21:17.793Z,100277.19
2022-11-08T08:25:19.434Z,100285.28
2022-11-08T08:29:21.218Z,100284.03
2022-11-08T08:33:28.304Z,100292.06
2022-11-08T08:37:31.001Z,100295.41
2022-11-08T08:41:32.555Z,100295.31
2022-11-08T08:45:35.997Z,100304.53
2022-11-08T08:49:37.682Z,100301.09
2022-11-08T08:53:39.308Z,100295.41
2022-11-08T08:57:48.025Z,100291.31
2022-11-08T09:01:49.630Z,100289.53
2022-11-08T09:05:51.161Z,100295.66
2022-11-08T09:09:52.747Z,100300.72
2022-11-08T09:13:54.478Z,100301.31
2022-11-08T09:17:57.101Z,100303.75
2022-11-08T09:21:58.859Z,100316.50
2022-11-08T09:26:03.597Z,100320.84
2022-11-08T09:30:06.186Z,100308.31
2022-11-08T09:34:07.785Z,100311.13
2022-11-08T09:38:09.389Z,100300.38
2022-11-08T09:42:32.463Z,100299.84
2022-11-08T09:46:49.133Z,100289.09
2022-11-08T09:50:53.580Z,100286.69
2022-11-08T09:55:14.173Z,100285.34
2022-11-08T09:59:15.628Z,100290.78
2022-11-08T10:03:18.527Z,100291.03
2022-11-08T10:07:29.049Z,100293.91
2022-11-08T10:12:00.852Z,100300.13
2022-11-08T10:16:10.280Z,100289.19
2022-11-08T10:20:36.440Z,100312.63
2022-11-08T10:24:56.749Z,100286.34
2022-11-08T10:29:15.592Z,100286.63
2022-11-08T10:33:34.449Z,100287.81
2022-11-08T10:37:37.117Z,100274.22
2022-11-08T10:42:00.292Z,100269.94
2022-11-08T10:46:02.260Z,100273.34
2022-11-08T10:50:26.073Z,100277.09
2022-11-08T10:54:53.341Z,100268.69
2022-11-08T10:58:54.994Z,100271.47
2022-11-08T11:03:28.680Z,100257.13
2022-11-08T11:07:36.337Z,100247.09
2022-11-08T11:11:38.652Z,100243.06
2022-11-08T11:15:51.145Z,100238.19
2022-11-08T11:19:57.115Z,100240.28
2022-11-08T11:24:10.213Z,100244.00
2022-11-08T11:28:14.073Z,100239.16
2022-11-08T11:32:24.937Z,100227.53
2022-11-08T11:36:29.994Z,100219.34
2022-11-08T11:40:46.437Z,100214.50
2022-11-08T11:44:54.131Z,100212.97
2022-11-08T11:49:01.222Z,100210.50
2022-11-08T11:53:20.696Z,100202.09
2022-11-08T11:57:42.891Z,100198.03
2022-11-08T12:02:17.582Z,100193.97
2022-11-08T12:06:25.010Z,100184.66
2022-11-08T12:10:44.628Z,100178.69
2022-11-08T12:15:14.162Z,100179.38
2022-11-08T12:19:34.541Z,100174.81
2022-11-08T12:23:54.484Z,100179.84
2022-11-08T12:28:23.730Z,100178.25
2022-11-08T12:32:25.157Z,100159.53
2022-11-08T12:36:38.853Z,100162.28
2022-11-08T12:40:48.434Z,100160.66
2022-11-08T12:45:29.081Z,100148.75
2022-11-08T12:49:36.570Z,100145.38
2022-11-08T12:53:59.044Z,100144.59
2022-11-08T12:58:05.405Z,100144.44
2022-11-08T13:02:30.155Z,100128.03
2022-11-08T13:06:55.209Z,100131.50
2022-11-08T13:11:09.096Z,100121.41
2022-11-08T13:15:20.613Z,100128.53
2022-11-08T13:19:28.610Z,100123.63
2022-11-08T13:23:31.488Z,100117.78
2022-11-08T13:27:39.099Z,100119.50
2022-11-08T13:32:05.729Z,100109.09
2022-11-08T13:36:41.006Z,100112.41
2022-11-08T13:41:13.872Z,100114.03
2022-11-08T13:45:18.471Z,100121.00
2022-11-08T13:49:22.481Z,100127.13
2022-11-08T13:53:41.757Z,100111.66
2022-11-08T13:57:59.497Z,100117.59
2022-11-08T14:02:21.363Z,100118.41
2022-11-08T14:06:35.370Z,100110.69
2022-11-08T14:10:58.406Z,100103.06
2022-11-08T14:15:07.171Z,100098.78
2022-11-08T14:19:24.098Z,100104.84
2022-11-08T14:23:29.357Z,100095.38
2022-11-08T14:27:40.112Z,100102.25
2022-11-08T14:31:41.791Z,100098.72
2022-11-08T14:35:43.561Z,100092.59
2022-11-08T14:39:46.472Z,100102.84
2022-11-08T14:43:50.450Z,100098.44
2022-11-08T14:48:03.105Z,100090.66
2022-11-08T14:52:07.564Z,100087.09
2022-11-08T14:56:24.240Z,100082.72
2022-11-08T15:00:29.132Z,100082.53
2022-11-08T15:04:32.062Z,100076.44
2022-11-08T15:08:53.196Z,100064.31
2022-11-08T15:12:55.571Z,100071.06
2022-11-08T15:17:02.616Z,100077.03
2022-11-08T15:21:26.404Z,100074.38
2022-11-08T15:25:32.799Z,100064.91
2022-11-08T15:30:09.404Z,100078.50
2022-11-08T15:34:22.342Z,100073.22
2022-11-08T15:38:47.023Z,100079.13
2022-11-08T15:42:51.823Z,100082.47
2022-11-08T15:46:55.292Z,100078.03
2022-11-08T15:50:57.610Z,100072.66
2022-11-08T15:54:59.162Z,100069.97
2022-11-08T15:59:00.809Z,100063.84
2022-11-08T16:03:02.355Z,100066.28
2022-11-08T16:07:03.921Z,100067.03
2022-11-08T16:11:06.202Z,100056.66
2022-11-08T16:15:15.449Z,100068.59
2022-11-08T16:19:23.317Z,100064.22
2022-11-08T16:23:24.992Z,100059.03
2022-11-08T16:27:26.503Z,100056.41
2022-11-08T16:31:28.050Z,100051.16
2022-11-08T16:35:29.602Z,100052.88
2022-11-08T16:39:31.123Z,100066.66
2022-11-08T16:43:32.862Z,100064.13
2022-11-08T16:47:35.002Z,100065.88
2022-11-08T16:51:36.639Z,100067.63
2022-11-08T16:55:38.192Z,100068.50
2022-11-08T16:59:39.707Z,100068.50
2022-11-08T17:03:41.349Z,100071.13
2022-11-08T17:07:42.900Z,100066.81
2022-11-08T17:11:44.450Z,100078.72
2022-11-08T17:15:47.186Z,100078.69
2022-11-08T17:19:48.805Z,100072.66
2022-11-08T17:23:51.075Z,100076.09
2022-11-08T17:27:52.867Z,100072.59
2022-11-08T17:31:54.444Z,100082.03
2022-11-08T17:35:56.071Z,100081.22
2022-11-08T17:39:57.782Z,100082.03
2022-11-08T17:43:59.467Z,100086.22
2022-11-08T17:48:01.061Z,100085.09
2022-11-08T17:52:03.358Z,100084.03
2022-11-08T17:56:05.914Z,100093.41
2022-11-08T18:00:24.637Z,100084.88
2022-11-08T18:04:26.271Z,100082.25
2022-11-08T18:08:30.095Z,100101.97
2022-11-08T18:12:31.619Z,100097.72
2022-11-08T18:16:34.244Z,100105.47
2022-11-08T18:20:35.939Z,100105.41
2022-11-08T18:24:37.473Z,100096.78
2022-11-08T18:28:39.711Z,100107.06
2022-11-08T18:32:41.228Z,100102.84
2022-11-08T18:36:42.819Z,100096.13
2022-11-08T18:40:45.839Z,100101.47
2022-11-08T18:44:47.354Z,100088.75
2022-11-08T18:48:49.597Z,100086.22
2022-11-08T18:52:51.080Z,100083.59
2022-11-08T18:56:52.725Z,100083.63
2022-11-08T19:00:55.978Z,100074.25
2022-11-08T19:04:58.336Z,100075.97
2022-11-08T19:09:00.042Z,100081.97
2022-11-08T19:13:01.622Z,100076.03
2022-11-08T19:17:03.351Z,100077.78
2022-11-08T19:21:13.655Z,100082.97
2022-11-08T19:25:15.472Z,100089.00
2022-11-08T19:29:17.132Z,100080.28
2022-11-08T19:33:19.612Z,100090.50
2022-11-08T19:37:21.332Z,100087.94
2022-11-08T19:41:24.867Z,100094.84
2022-11-08T19:45:26.385Z,100095.63
2022-11-08T19:49:28.675Z,100093.06
2022-11-08T19:53:30.485Z,100090.44
2022-11-08T19:57:34.934Z,100085.13
2022-11-08T20:01:38.919Z,100093.59
2022-11-08T20:05:40.474Z,100092.53
2022-11-08T20:09:42.065Z,100101.88
2022-11-08T20:13:44.176Z,100100.94
2022-11-08T20:17:45.826Z,100118.00
2022-11-08T20:21:48.167Z,100110.31
2022-11-08T20:25:49.799Z,100111.22
2022-11-08T20:29:51.772Z,100110.44
2022-11-08T20:33:53.989Z,100098.38
2022-11-08T20:37:58.649Z,100108.66
2022-11-08T20:42:00.294Z,100109.56
2022-11-08T20:46:07.536Z,100112.16
2022-11-08T20:50:10.658Z,100119.97
2022-11-08T20:54:12.894Z,100109.03
2022-11-08T20:58:14.413Z,100111.59
2022-11-08T21:02:16.077Z,100119.44
2022-11-08T21:06:21.898Z,100118.75
2022-11-08T21:14:44.955Z,100128.28
2022-11-08T21:18:46.685Z,100135.94
2022-11-08T21:22:48.171Z,100140.28
2022-11-08T21:26:49.739Z,100133.41
2022-11-08T21:30:51.284Z,100126.44
2022-11-08T21:34:52.805Z,100129.78
2022-11-08T21:38:54.415Z,100123.75
2022-11-08T21:42:55.962Z,100137.47
2022-11-08T21:46:57.475Z,100128.16
2022-11-08T21:51:05.249Z,100100.72
2022-11-08T21:55:06.911Z,100104.88
2022-11-08T21:59:08.444Z,100114.38
2022-11-08T22:03:11.118Z,100125.59
2022-11-08T22:07:12.724Z,100125.72
2022-11-08T22:11:14.218Z,100127.41
2022-11-08T22:15:15.836Z,100130.03
2022-11-08T22:19:17.394Z,100135.28
2022-11-08T22:23:18.910Z,100121.63
2022-11-08T22:27:20.391Z,100121.63
2022-11-08T22:31:22.082Z,100131.00
2022-11-08T22:35:23.568Z,100118.91
2022-11-08T22:39:25.885Z,100121.38
2022-11-08T22:43:27.446Z,100107.69
2022-11-08T22:47:29.035Z,100106.84
2022-11-08T22:51:30.558Z,100092.25
2022-11-08T22:55:32.132Z,100085.34
2022-11-08T22:59:33.714Z,100087.00
2022-11-08T23:03:35.261Z,100076.78
2022-11-08T23:07:36.777Z,100090.56
2022-11-08T23:11:56.550Z,100092.31
2022-11-08T23:16:09.801Z,100085.50
2022-11-08T23:20:29.973Z,100083.78
2022-11-08T23:24:32.004Z,100089.78
2022-11-08T23:28:52.073Z,100058.19
2022-11-08T23:32:53.569Z,100071.09
2022-11-08T23:36:55.079Z,100073.75
2022-11-08T23:41:17.848Z,100076.38
2022-11-08T23:45:19.406Z,100085.78
2022-11-08T23:49:20.937Z,100107.25
2022-11-08T23:53:26.223Z,100116.88
2022-11-08T23:57:27.756Z,100134.06
